Time;durP1;ratioP1;P1;durP2;ratioP2;P2;SDS_P1;SDS_P2;PMS_P1;PMS_P2;Temp;Humidity;BMP_temperature;BMP_pressure;BME280_temperature;BME280_humidity;BME280_pressure;Samples;Min_cycle;Max_cycle;Signal;HPM_P1;HPM_P2
2023/06/03 00:01:36;;;;;;;8.32;3.83;;;;;;;;;;5017520;28;20270;-49
2023/06/03 00:04:04;;;;;;;9.05;3.90;;;;;;;;;;5008503;28;20560;-49
2023/06/03 00:06:29;;;;;;;5.10;3.47;;;;;;;;;;5014202;28;20478;-49
2023/06/03 00:08:55;;;;;;;4.60;3.58;;;;;;;;;;5010425;28;20194;-49
2023/06/03 00:11:21;;;;;;;5.18;3.60;;;;;;;;;;5015928;28;20188;-49
2023/06/03 00:13:48;;;;;;;3.50;3.20;;;;;;;;;;5013396;28;20450;-49
2023/06/03 00:16:14;;;;;;;5.32;3.75;;;;;;;;;;5014565;28;20588;-49
2023/06/03 00:18:40;;;;;;;4.30;3.50;;;;;;;;;;5015435;28;20185;-49
2023/06/03 00:21:06;;;;;;;4.95;3.25;;;;;;;;;;5010140;28;20217;-48
2023/06/03 00:23:32;;;;;;;6.05;3.75;;;;;;;;;;5007945;28;20201;-49
2023/06/03 00:25:58;;;;;;;5.32;3.60;;;;;;;;;;5009346;28;20272;-49
2023/06/03 00:28:24;;;;;;;7.28;3.50;;;;;;;;;;5013701;28;20227;-49
2023/06/03 00:30:50;;;;;;;4.50;3.30;;;;;;;;;;5012771;28;20524;-49
2023/06/03 00:33:16;;;;;;;6.47;3.33;;;;;;;;;;5017183;28;20426;-49
2023/06/03 00:35:41;;;;;;;5.32;3.25;;;;;;;;;;5014722;28;20184;-49
2023/06/03 00:38:07;;;;;;;6.10;3.30;;;;;;;;;;5015506;28;20185;-49
2023/06/03 00:40:33;;;;;;;4.35;3.03;;;;;;;;;;5013269;28;20192;-49
2023/06/03 00:42:59;;;;;;;4.03;2.95;;;;;;;;;;5009976;28;20207;-49
2023/06/03 00:45:25;;;;;;;5.95;3.13;;;;;;;;;;5012258;28;20292;-49
2023/06/03 00:47:51;;;;;;;4.60;2.92;;;;;;;;;;5015050;28;20263;-49
2023/06/03 00:50:17;;;;;;;3.47;2.90;;;;;;;;;;5013461;28;20226;-49
2023/06/03 00:52:44;;;;;;;6.78;3.30;;;;;;;;;;5004474;28;20204;-49
2023/06/03 00:55:10;;;;;;;3.67;2.90;;;;;;;;;;5009342;28;20537;-49
2023/06/03 00:57:36;;;;;;;6.63;3.72;;;;;;;;;;5012531;28;20291;-49
2023/06/03 01:00:02;;;;;;;6.03;3.42;;;;;;;;;;5022069;28;20263;-49
2023/06/03 01:02:28;;;;;;;4.30;3.33;;;;;;;;;;5008778;28;20180;-49
2023/06/03 01:04:58;;;;;;;3.20;2.80;;;;;;;;;;5011103;28;20180;-49
2023/06/03 01:07:27;;;;;;;3.38;3.08;;;;;;;;;;5012919;28;20246;-49
2023/06/03 01:10:01;;;;;;;4.82;3.45;;;;;;;;;;5013684;28;20188;-49
2023/06/03 01:12:45;;;;;;;4.95;3.45;;;;;;;;;;5006217;28;20204;-49
2023/06/03 01:15:20;;;;;;;5.15;3.58;;;;;;;;;;5007996;28;20187;-49
2023/06/03 01:17:47;;;;;;;6.88;3.63;;;;;;;;;;5015055;28;20203;-49
2023/06/03 01:20:14;;;;;;;5.07;3.33;;;;;;;;;;5013090;28;20274;-49
2023/06/03 01:22:41;;;;;;;5.70;3.17;;;;;;;;;;5015269;28;20590;-49
2023/06/03 01:25:08;;;;;;;4.85;3.50;;;;;;;;;;5013679;28;20583;-49
2023/06/03 01:27:34;;;;;;;3.67;2.92;;;;;;;;;;5014840;28;20194;-49
2023/06/03 01:30:00;;;;;;;3.40;3.08;;;;;;;;;;5015782;28;20184;-49
2023/06/03 01:32:26;;;;;;;4.55;3.00;;;;;;;;;;5015066;28;20203;-49
2023/06/03 01:34:52;;;;;;;9.10;3.58;;;;;;;;;;5014105;28;20195;-49
2023/06/03 01:37:19;;;;;;;4.68;3.00;;;;;;;;;;5008513;28;20216;-49
2023/06/03 01:39:45;;;;;;;6.43;3.47;;;;;;;;;;5016565;28;20275;-48
2023/06/03 01:42:11;;;;;;;4.75;3.45;;;;;;;;;;5013271;28;20315;-50
2023/06/03 01:44:37;;;;;;;4.25;2.80;;;;;;;;;;5006000;28;20181;-49
2023/06/03 01:47:04;;;;;;;3.38;3.08;;;;;;;;;;5008094;28;20197;-49
2023/06/03 01:49:31;;;;;;;4.03;2.83;;;;;;;;;;5008808;28;20188;-49
2023/06/03 01:52:00;;;;;;;3.75;3.03;;;;;;;;;;5004574;28;20200;-49
2023/06/03 01:54:27;;;;;;;4.35;2.90;;;;;;;;;;5012179;28;20634;-49
2023/06/03 01:56:53;;;;;;;4.63;2.80;;;;;;;;;;5015799;28;20211;-49
2023/06/03 01:59:23;;;;;;;4.05;2.97;;;;;;;;;;5015103;28;20192;-49
2023/06/03 02:01:48;;;;;;;3.72;2.88;;;;;;;;;;5016599;28;20447;-49
2023/06/03 02:04:14;;;;;;;4.53;3.05;;;;;;;;;;5011175;28;20263;-49
2023/06/03 02:06:40;;;;;;;5.35;2.95;;;;;;;;;;5011283;28;20192;-49
2023/06/03 02:09:10;;;;;;;3.38;2.50;;;;;;;;;;5011340;28;20548;-49
2023/06/03 02:11:35;;;;;;;3.22;2.90;;;;;;;;;;5010515;28;20185;-49
2023/06/03 02:14:02;;;;;;;4.50;2.83;;;;;;;;;;5014750;28;20237;-49
2023/06/03 02:16:27;;;;;;;6.45;3.28;;;;;;;;;;5013065;28;20643;-49
2023/06/03 02:18:54;;;;;;;3.17;2.70;;;;;;;;;;5012516;28;20271;-49
2023/06/03 02:21:20;;;;;;;5.05;3.20;;;;;;;;;;5011601;28;20216;-49
2023/06/03 02:23:46;;;;;;;3.70;2.53;;;;;;;;;;5013202;28;20193;-49
2023/06/03 02:26:13;;;;;;;3.63;2.58;;;;;;;;;;5012052;28;20188;-49
2023/06/03 02:28:39;;;;;;;3.20;2.60;;;;;;;;;;5018374;28;20186;-49
2023/06/03 02:31:05;;;;;;;5.90;3.17;;;;;;;;;;5017205;28;20419;-49
2023/06/03 02:33:31;;;;;;;4.95;2.90;;;;;;;;;;5016697;28;20185;-49
2023/06/03 02:35:57;;;;;;;6.88;3.20;;;;;;;;;;5015808;28;20184;-49
2023/06/03 02:38:23;;;;;;;4.20;2.72;;;;;;;;;;5008905;28;20192;-49
2023/06/03 02:40:48;;;;;;;3.22;2.80;;;;;;;;;;5013874;28;20524;-49
2023/06/03 02:43:14;;;;;;;3.13;2.55;;;;;;;;;;5011925;28;20196;-49
2023/06/03 02:45:40;;;;;;;4.40;2.78;;;;;;;;;;5008330;28;20192;-49
2023/06/03 02:48:06;;;;;;;4.35;2.83;;;;;;;;;;5015785;28;20212;-49
2023/06/03 02:50:32;;;;;;;4.78;2.88;;;;;;;;;;5017139;28;20436;-49
2023/06/03 02:52:58;;;;;;;3.72;2.70;;;;;;;;;;5017757;28;20191;-49
2023/06/03 02:55:27;;;;;;;4.03;2.67;;;;;;;;;;5018237;28;20183;-49
2023/06/03 02:57:53;;;;;;;4.75;3.08;;;;;;;;;;5022503;28;20245;-49
2023/06/03 03:00:19;;;;;;;3.60;2.67;;;;;;;;;;5019189;28;20634;-49
2023/06/03 03:02:45;;;;;;;5.57;2.92;;;;;;;;;;5011868;28;20590;-49
2023/06/03 03:05:10;;;;;;;5.70;3.10;;;;;;;;;;5005905;28;20189;-49
2023/06/03 03:07:37;;;;;;;5.07;2.97;;;;;;;;;;5017153;28;20208;-49
2023/06/03 03:10:04;;;;;;;4.78;3.03;;;;;;;;;;5010661;28;20180;-49
2023/06/03 03:12:30;;;;;;;3.20;2.75;;;;;;;;;;5016958;28;20192;-49
2023/06/03 03:14:56;;;;;;;4.13;2.78;;;;;;;;;;5013543;28;20204;-49
2023/06/03 03:17:22;;;;;;;2.92;2.42;;;;;;;;;;5015149;28;20211;-49
2023/06/03 03:19:48;;;;;;;2.88;2.58;;;;;;;;;;5015850;28;20226;-49
2023/06/03 03:22:14;;;;;;;4.28;2.70;;;;;;;;;;5015029;28;20207;-49
2023/06/03 03:24:42;;;;;;;4.35;2.80;;;;;;;;;;5015369;28;20223;-49
2023/06/03 03:27:08;;;;;;;5.05;3.15;;;;;;;;;;5016799;28;20562;-49
2023/06/03 03:29:34;;;;;;;3.17;2.30;;;;;;;;;;5033039;28;20188;-49
2023/06/03 03:32:07;;;;;;;3.22;2.75;;;;;;;;;;5015889;28;20469;-49
2023/06/03 03:34:36;;;;;;;3.55;2.92;;;;;;;;;;5013526;28;20180;-49
2023/06/03 03:37:02;;;;;;;2.92;2.30;;;;;;;;;;5012135;28;20200;-49
2023/06/03 03:39:28;;;;;;;3.40;2.40;;;;;;;;;;5017282;28;20287;-49
2023/06/03 03:41:54;;;;;;;3.67;3.00;;;;;;;;;;5014962;28;20583;-49
2023/06/03 03:44:21;;;;;;;3.40;2.63;;;;;;;;;;5017542;28;20184;-49
2023/06/03 03:46:52;;;;;;;3.25;2.53;;;;;;;;;;5014427;28;20291;-49
2023/06/03 03:49:21;;;;;;;2.78;2.58;;;;;;;;;;5032114;28;20275;-49
2023/06/03 03:51:47;;;;;;;2.60;2.38;;;;;;;;;;5015960;28;20184;-49
2023/06/03 03:54:13;;;;;;;2.58;2.13;;;;;;;;;;5017352;28;20186;-49
2023/06/03 03:56:39;;;;;;;3.15;2.20;;;;;;;;;;5011399;28;20208;-49
2023/06/03 03:59:05;;;;;;;3.13;2.35;;;;;;;;;;5025168;28;20187;-48
2023/06/03 04:01:35;;;;;;;2.80;2.53;;;;;;;;;;5016336;28;20460;-49
2023/06/03 04:04:05;;;;;;;2.63;2.20;;;;;;;;;;5015986;28;20199;-49
2023/06/03 04:06:32;;;;;;;3.65;2.40;;;;;;;;;;5014747;28;20185;-49
2023/06/03 04:08:58;;;;;;;4.88;2.33;;;;;;;;;;5012590;28;20181;-49
2023/06/03 04:11:28;;;;;;;2.50;2.30;;;;;;;;;;5011698;28;20196;-49
2023/06/03 04:13:58;;;;;;;4.40;2.40;;;;;;;;;;5016449;28;20211;-49
2023/06/03 04:16:47;;;;;;;2.78;2.38;;;;;;;;;;5010568;28;20309;-49
2023/06/03 04:19:19;;;;;;;2.78;2.00;;;;;;;;;;5009597;28;20430;-48
2023/06/03 04:21:45;;;;;;;2.28;2.08;;;;;;;;;;5015623;28;20188;-49
2023/06/03 04:24:11;;;;;;;2.55;2.28;;;;;;;;;;5016266;28;20180;-49
2023/06/03 04:26:38;;;;;;;3.38;2.67;;;;;;;;;;5011214;28;20176;-49
2023/06/03 04:29:04;;;;;;;3.25;2.47;;;;;;;;;;5023689;28;20180;-49
2023/06/03 04:31:30;;;;;;;4.10;2.33;;;;;;;;;;5011004;28;20195;-49
2023/06/03 04:33:56;;;;;;;3.30;2.40;;;;;;;;;;5015301;28;20185;-49
2023/06/03 04:36:22;;;;;;;4.53;2.20;;;;;;;;;;5010387;28;20482;-49
2023/06/03 04:38:48;;;;;;;3.08;1.73;;;;;;;;;;5015322;28;20169;-49
2023/06/03 04:41:15;;;;;;;4.50;2.38;;;;;;;;;;5014065;28;20191;-49
2023/06/03 04:43:43;;;;;;;2.40;2.20;;;;;;;;;;5015998;28;20204;-49
2023/06/03 04:46:09;;;;;;;2.92;2.35;;;;;;;;;;5012646;28;20295;-48
2023/06/03 04:48:35;;;;;;;3.22;2.50;;;;;;;;;;5008882;28;20231;-49
2023/06/03 04:51:06;;;;;;;3.47;2.20;;;;;;;;;;5009310;28;20184;-49
2023/06/03 04:53:33;;;;;;;2.53;2.33;;;;;;;;;;5008840;28;20206;-49
2023/06/03 04:55:58;;;;;;;2.58;2.38;;;;;;;;;;5010524;28;20184;-49
2023/06/03 04:58:25;;;;;;;2.92;2.25;;;;;;;;;;5021968;28;20195;-49
2023/06/03 05:00:50;;;;;;;4.10;2.22;;;;;;;;;;5010594;28;20275;-48
2023/06/03 05:03:17;;;;;;;3.45;2.55;;;;;;;;;;5014661;28;20271;-49
2023/06/03 05:05:44;;;;;;;2.47;2.22;;;;;;;;;;5012488;28;20187;-49
2023/06/03 05:08:10;;;;;;;2.60;2.20;;;;;;;;;;5016527;28;20229;-49
2023/06/03 05:10:36;;;;;;;2.92;2.30;;;;;;;;;;5014550;28;20180;-49
2023/06/03 05:13:03;;;;;;;3.95;2.60;;;;;;;;;;5013356;28;20995;-49
2023/06/03 05:15:29;;;;;;;3.03;2.53;;;;;;;;;;5010815;28;20189;-49
2023/06/03 05:17:55;;;;;;;5.20;2.65;;;;;;;;;;5012386;28;20201;-49
2023/06/03 05:20:21;;;;;;;2.92;2.38;;;;;;;;;;5008842;28;20213;-49
2023/06/03 05:22:47;;;;;;;4.30;2.20;;;;;;;;;;5013500;28;20190;-49
2023/06/03 05:25:13;;;;;;;4.45;2.47;;;;;;;;;;5007093;28;20259;-49
2023/06/03 05:27:39;;;;;;;3.58;2.65;;;;;;;;;;5017939;28;20215;-49
2023/06/03 05:30:05;;;;;;;2.25;1.90;;;;;;;;;;5018811;28;20193;-49
2023/06/03 05:32:31;;;;;;;4.07;2.20;;;;;;;;;;5013712;28;20511;-49
2023/06/03 05:34:57;;;;;;;4.45;2.67;;;;;;;;;;5004675;28;20268;-49
2023/06/03 05:37:23;;;;;;;2.30;2.00;;;;;;;;;;5012217;28;20227;-49
2023/06/03 05:39:48;;;;;;;2.63;2.30;;;;;;;;;;5013877;28;20196;-49
2023/06/03 05:42:14;;;;;;;2.65;1.88;;;;;;;;;;5021026;28;20192;-49
2023/06/03 05:44:40;;;;;;;3.10;2.10;;;;;;;;;;5014629;28;20180;-49
2023/06/03 05:47:06;;;;;;;2.33;1.98;;;;;;;;;;5013769;28;20184;-49
2023/06/03 05:49:32;;;;;;;3.53;2.50;;;;;;;;;;5014885;28;20824;-49
2023/06/03 05:51:58;;;;;;;4.57;2.30;;;;;;;;;;5013325;28;20198;-49
2023/06/03 05:54:28;;;;;;;4.57;2.25;;;;;;;;;;5011212;28;20192;-49
2023/06/03 05:56:54;;;;;;;3.15;1.90;;;;;;;;;;5013208;28;20575;-49
2023/06/03 05:59:19;;;;;;;3.53;2.00;;;;;;;;;;5020141;28;20282;-49
2023/06/03 06:01:45;;;;;;;5.18;1.92;;;;;;;;;;5013499;28;20251;-49
2023/06/03 06:04:11;;;;;;;3.67;2.03;;;;;;;;;;5011957;28;20404;-49
2023/06/03 06:06:37;;;;;;;3.63;2.13;;;;;;;;;;5012566;28;20189;-49
2023/06/03 06:09:03;;;;;;;3.78;2.13;;;;;;;;;;5014208;28;20577;-49
2023/06/03 06:11:29;;;;;;;3.50;2.38;;;;;;;;;;5005493;28;20212;-49
2023/06/03 06:13:55;;;;;;;4.22;2.63;;;;;;;;;;5009961;28;20192;-49
2023/06/03 06:16:21;;;;;;;4.45;2.60;;;;;;;;;;5004364;28;20224;-49
2023/06/03 06:18:47;;;;;;;5.35;3.25;;;;;;;;;;5012863;28;20570;-49
2023/06/03 06:21:14;;;;;;;4.40;2.67;;;;;;;;;;5006973;28;21052;-49
2023/06/03 06:23:41;;;;;;;3.47;2.75;;;;;;;;;;5006902;28;20289;-49
2023/06/03 06:26:07;;;;;;;5.07;2.58;;;;;;;;;;5008039;28;20269;-49
2023/06/03 06:28:33;;;;;;;3.33;1.92;;;;;;;;;;5019231;28;20195;-49
2023/06/03 06:31:04;;;;;;;5.38;2.42;;;;;;;;;;5012373;28;20237;-49
2023/06/03 06:33:31;;;;;;;6.15;2.17;;;;;;;;;;5014070;28;20563;-49
2023/06/03 06:35:56;;;;;;;3.15;2.13;;;;;;;;;;5009256;28;20275;-49
2023/06/03 06:38:22;;;;;;;4.43;2.13;;;;;;;;;;5013419;28;20259;-49
2023/06/03 06:40:50;;;;;;;5.82;2.10;;;;;;;;;;5010066;28;20656;-49
2023/06/03 06:43:18;;;;;;;5.28;2.28;;;;;;;;;;5010730;28;20185;-49
2023/06/03 06:45:44;;;;;;;3.47;2.22;;;;;;;;;;5015330;28;20177;-49
2023/06/03 06:48:11;;;;;;;3.10;1.70;;;;;;;;;;5010314;28;20475;-49
2023/06/03 06:50:59;;;;;;;4.22;2.17;;;;;;;;;;5012637;28;20199;-49
2023/06/03 06:53:26;;;;;;;5.93;2.40;;;;;;;;;;5011468;28;20195;-49
2023/06/03 06:55:56;;;;;;;3.10;2.22;;;;;;;;;;5010247;28;20481;-49
2023/06/03 06:58:25;;;;;;;4.47;2.30;;;;;;;;;;5019255;28;20289;-49
2023/06/03 07:00:51;;;;;;;5.18;2.50;;;;;;;;;;5011763;28;20192;-49
2023/06/03 07:03:17;;;;;;;3.55;2.58;;;;;;;;;;5014074;28;20188;-49
2023/06/03 07:05:44;;;;;;;4.38;2.10;;;;;;;;;;5012740;28;20208;-49
2023/06/03 07:08:10;;;;;;;4.57;1.90;;;;;;;;;;5011585;28;20181;-49
2023/06/03 07:10:36;;;;;;;3.35;1.98;;;;;;;;;;5008230;28;20574;-49
2023/06/03 07:13:03;;;;;;;7.15;1.95;;;;;;;;;;5010241;28;20180;-49
2023/06/03 07:15:29;;;;;;;2.28;2.00;;;;;;;;;;5008700;28;20193;-49
2023/06/03 07:17:56;;;;;;;3.17;2.30;;;;;;;;;;5014413;28;20216;-49
2023/06/03 07:20:35;;;;;;;2.38;1.70;;;;;;;;;;5016150;28;20223;-49
2023/06/03 07:23:02;;;;;;;3.85;2.10;;;;;;;;;;5011533;28;20459;-50
2023/06/03 07:25:31;;;;;;;3.38;1.67;;;;;;;;;;5015628;28;20183;-49
2023/06/03 07:27:57;;;;;;;5.90;1.60;;;;;;;;;;5029982;28;20666;-50
2023/06/03 07:30:23;;;;;;;4.35;1.52;;;;;;;;;;5013151;28;20199;-49
2023/06/03 07:32:51;;;;;;;2.13;1.60;;;;;;;;;;5015387;28;20184;-49
2023/06/03 07:35:20;;;;;;;5.68;2.00;;;;;;;;;;5017956;28;20507;-49
2023/06/03 07:37:46;;;;;;;2.45;1.88;;;;;;;;;;5013119;28;20208;-49
2023/06/03 07:40:16;;;;;;;3.55;1.50;;;;;;;;;;5012662;28;20195;-50
2023/06/03 07:42:44;;;;;;;3.92;1.60;;;;;;;;;;5009234;28;20243;-50
2023/06/03 07:45:13;;;;;;;2.78;1.88;;;;;;;;;;5017196;28;20187;-49
2023/06/03 07:47:39;;;;;;;5.15;1.88;;;;;;;;;;5016203;28;20173;-50
2023/06/03 07:50:16;;;;;;;1.88;1.30;;;;;;;;;;5012992;28;20320;-50
2023/06/03 07:52:42;;;;;;;2.85;1.50;;;;;;;;;;5010400;28;20176;-50
2023/06/03 07:55:08;;;;;;;2.10;1.40;;;;;;;;;;5012819;28;20272;-50
2023/06/03 07:57:37;;;;;;;1.60;1.33;;;;;;;;;;5016635;28;20278;-49
2023/06/03 08:00:03;;;;;;;2.08;1.52;;;;;;;;;;5022594;28;20184;-49
2023/06/03 08:02:30;;;;;;;6.50;1.98;;;;;;;;;;5014681;28;20260;-49
2023/06/03 08:05:00;;;;;;;3.05;1.50;;;;;;;;;;5011312;28;20184;-50
2023/06/03 08:07:27;;;;;;;6.85;1.63;;;;;;;;;;5015450;28;20452;-49
2023/06/03 08:09:53;;;;;;;2.17;1.45;;;;;;;;;;5011494;28;20185;-50
2023/06/03 08:12:19;;;;;;;4.60;1.80;;;;;;;;;;5006669;28;20199;-50
2023/06/03 08:14:45;;;;;;;1.63;1.10;;;;;;;;;;5016562;28;20267;-50
2023/06/03 08:17:12;;;;;;;2.30;1.38;;;;;;;;;;5012087;28;20318;-50
2023/06/03 08:19:38;;;;;;;2.63;1.30;;;;;;;;;;5026116;28;20694;-49
2023/06/03 08:22:11;;;;;;;2.45;1.75;;;;;;;;;;5000177;28;20617;-49
2023/06/03 08:24:37;;;;;;;12.27;2.40;;;;;;;;;;5012851;28;20211;-50
2023/06/03 08:27:03;;;;;;;5.40;1.60;;;;;;;;;;5015935;28;20188;-50
2023/06/03 08:29:29;;;;;;;2.45;1.20;;;;;;;;;;5020461;28;20480;-49
2023/06/03 08:31:55;;;;;;;5.03;1.13;;;;;;;;;;5015902;28;20189;-50
2023/06/03 08:34:21;;;;;;;5.07;1.50;;;;;;;;;;5015613;28;20184;-49
2023/06/03 08:36:47;;;;;;;4.63;1.40;;;;;;;;;;5015450;28;20294;-50
2023/06/03 08:39:12;;;;;;;3.88;1.25;;;;;;;;;;5014964;28;20204;-50
2023/06/03 08:41:41;;;;;;;2.55;1.30;;;;;;;;;;5007779;28;20212;-49
2023/06/03 08:44:30;;;;;;;2.97;1.30;;;;;;;;;;5008300;28;20191;-49
2023/06/03 08:47:00;;;;;;;1.35;1.10;;;;;;;;;;5009541;28;20184;-50
2023/06/03 08:49:34;;;;;;;2.42;1.20;;;;;;;;;;5015173;28;20184;-50
2023/06/03 08:52:00;;;;;;;6.38;1.35;;;;;;;;;;5014055;28;20184;-49
2023/06/03 08:54:29;;;;;;;3.28;1.50;;;;;;;;;;5006727;28;20208;-51
2023/06/03 08:57:01;;;;;;;4.68;1.13;;;;;;;;;;5009999;28;20287;-49
2023/06/03 08:59:28;;;;;;;2.38;1.17;;;;;;;;;;5005417;28;20172;-50
2023/06/03 09:01:57;;;;;;;5.68;1.30;;;;;;;;;;5014986;28;20192;-51
2023/06/03 09:04:23;;;;;;;2.97;1.42;;;;;;;;;;5008522;28;20192;-49
2023/06/03 09:06:51;;;;;;;3.42;1.15;;;;;;;;;;5013149;28;20263;-49
2023/06/03 09:09:17;;;;;;;3.45;1.20;;;;;;;;;;5014250;28;20184;-49
2023/06/03 09:11:47;;;;;;;1.65;1.13;;;;;;;;;;5013425;28;20299;-51
2023/06/03 09:14:14;;;;;;;2.65;1.13;;;;;;;;;;5009066;28;20191;-50
2023/06/03 09:16:40;;;;;;;5.50;1.15;;;;;;;;;;5005080;28;20499;-49
2023/06/03 09:19:06;;;;;;;2.25;1.55;;;;;;;;;;5011889;28;20199;-50
2023/06/03 09:21:33;;;;;;;1.48;1.13;;;;;;;;;;5012570;28;20453;-50
2023/06/03 09:23:59;;;;;;;1.52;0.93;;;;;;;;;;5013449;28;20180;-49
2023/06/03 09:26:25;;;;;;;2.60;1.30;;;;;;;;;;5012026;28;20443;-50
2023/06/03 09:28:51;;;;;;;2.85;1.38;;;;;;;;;;5008768;28;20181;-49
2023/06/03 09:31:17;;;;;;;3.42;1.30;;;;;;;;;;5009744;28;20196;-49
2023/06/03 09:33:43;;;;;;;2.45;1.52;;;;;;;;;;5013154;28;20453;-50
2023/06/03 09:36:11;;;;;;;3.20;1.30;;;;;;;;;;5009665;28;20276;-49
2023/06/03 09:38:51;;;;;;;3.67;1.40;;;;;;;;;;5012503;28;20196;-49
2023/06/03 09:41:20;;;;;;;2.50;1.45;;;;;;;;;;5014645;28;20594;-49
2023/06/03 09:44:03;;;;;;;1.77;1.58;;;;;;;;;;5014149;28;20188;-49
2023/06/03 09:46:30;;;;;;;3.00;1.20;;;;;;;;;;5010052;28;20204;-50
2023/06/03 09:49:13;;;;;;;3.28;1.23;;;;;;;;;;5009171;28;20195;-50
2023/06/03 09:51:43;;;;;;;4.28;1.25;;;;;;;;;;5011958;28;20406;-49
2023/06/03 09:54:15;;;;;;;6.43;1.65;;;;;;;;;;5011355;28;21068;-49
2023/06/03 09:56:42;;;;;;;2.88;1.50;;;;;;;;;;5006845;28;20520;-49
2023/06/03 09:59:25;;;;;;;2.95;1.17;;;;;;;;;;5020525;28;20288;-50
2023/06/03 10:01:52;;;;;;;4.07;1.35;;;;;;;;;;5013930;28;20195;-50
2023/06/03 10:04:22;;;;;;;2.55;1.15;;;;;;;;;;5009456;28;20219;-50
2023/06/03 10:06:48;;;;;;;2.65;1.38;;;;;;;;;;5011868;28;20481;-49
2023/06/03 10:09:19;;;;;;;3.10;1.10;;;;;;;;;;5010796;28;20478;-49
2023/06/03 10:11:48;;;;;;;3.65;1.10;;;;;;;;;;5006337;28;20220;-50
2023/06/03 10:14:15;;;;;;;3.83;1.02;;;;;;;;;;5013954;28;20591;-49
2023/06/03 10:16:41;;;;;;;3.22;1.00;;;;;;;;;;5010677;28;20193;-49
2023/06/03 10:19:07;;;;;;;2.95;1.33;;;;;;;;;;5010772;28;20206;-49
2023/06/03 10:21:34;;;;;;;3.70;1.20;;;;;;;;;;5010784;28;20198;-50
2023/06/03 10:24:02;;;;;;;2.53;0.90;;;;;;;;;;5011202;28;20599;-52
2023/06/03 10:26:29;;;;;;;6.57;1.63;;;;;;;;;;5013909;28;20250;-49
2023/06/03 10:28:56;;;;;;;1.35;1.10;;;;;;;;;;5015646;28;20189;-49
2023/06/03 10:31:24;;;;;;;2.00;1.02;;;;;;;;;;5019746;28;20192;-50
2023/06/03 10:33:50;;;;;;;2.45;1.17;;;;;;;;;;5007458;28;20223;-49
2023/06/03 10:36:17;;;;;;;3.10;1.27;;;;;;;;;;5007710;28;20188;-51
2023/06/03 10:38:44;;;;;;;2.13;1.08;;;;;;;;;;5009360;28;20176;-49
2023/06/03 10:41:12;;;;;;;3.53;1.10;;;;;;;;;;5005435;28;20248;-50
2023/06/03 10:43:38;;;;;;;1.17;0.90;;;;;;;;;;5004479;28;20184;-49
2023/06/03 10:46:04;;;;;;;2.05;1.00;;;;;;;;;;5005266;28;20208;-50
2023/06/03 10:48:32;;;;;;;2.35;1.10;;;;;;;;;;5012488;28;20192;-50
2023/06/03 10:51:14;;;;;;;7.90;1.83;;;;;;;;;;5006560;28;20180;-50
2023/06/03 10:53:52;;;;;;;7.70;1.80;;;;;;;;;;5016916;28;20180;-50
2023/06/03 10:56:31;;;;;;;8.40;4.07;;;;;;;;;;5018350;28;20469;-50
2023/06/03 10:59:02;;;;;;;84.53;36.38;;;;;;;;;;5006652;28;20422;-52
2023/06/03 11:01:47;;;;;;;109.18;41.83;;;;;;;;;;5011643;28;20184;-50
2023/06/03 11:04:15;;;;;;;65.57;28.60;;;;;;;;;;5012244;28;20218;-51
2023/06/03 11:06:41;;;;;;;58.08;25.25;;;;;;;;;;5012893;28;20242;-52
2023/06/03 11:09:16;;;;;;;30.67;13.48;;;;;;;;;;5011661;28;20267;-51
2023/06/03 11:11:42;;;;;;;29.00;12.20;;;;;;;;;;5011051;28;20173;-52
2023/06/03 11:14:08;;;;;;;20.85;9.02;;;;;;;;;;5012445;28;20232;-52
2023/06/03 11:16:53;;;;;;;16.23;6.50;;;;;;;;;;5014013;28;20612;-50
2023/06/03 11:19:36;;;;;;;16.25;4.90;;;;;;;;;;5007968;28;20199;-51
2023/06/03 11:22:04;;;;;;;13.30;3.10;;;;;;;;;;5011863;28;20249;-50
2023/06/03 11:24:39;;;;;;;7.35;1.90;;;;;;;;;;5011995;28;20184;-52
2023/06/03 11:27:14;;;;;;;7.80;1.70;;;;;;;;;;5013643;28;20184;-50
2023/06/03 11:29:46;;;;;;;4.78;1.80;;;;;;;;;;5007307;28;20565;-51
2023/06/03 11:32:14;;;;;;;2.60;1.60;;;;;;;;;;5008324;28;20205;-51
2023/06/03 11:34:41;;;;;;;2.92;1.42;;;;;;;;;;5006308;28;20181;-51
2023/06/03 11:37:07;;;;;;;1.30;1.20;;;;;;;;;;5008123;28;20229;-51
2023/06/03 11:39:51;;;;;;;1.20;1.05;;;;;;;;;;5027186;28;20189;-51
2023/06/03 11:42:17;;;;;;;2.13;1.10;;;;;;;;;;5014759;28;20189;-51
2023/06/03 11:44:43;;;;;;;3.13;1.13;;;;;;;;;;5006451;28;20246;-51
2023/06/03 11:47:09;;;;;;;1.08;0.98;;;;;;;;;;5006368;28;20185;-52
2023/06/03 11:49:36;;;;;;;4.15;1.42;;;;;;;;;;5007236;28;20200;-51
2023/06/03 11:52:02;;;;;;;2.17;1.25;;;;;;;;;;5014797;28;20462;-51
2023/06/03 11:54:28;;;;;;;5.35;1.45;;;;;;;;;;5010710;28;20594;-50
2023/06/03 11:56:56;;;;;;;3.25;1.23;;;;;;;;;;5014571;28;20209;-50
2023/06/03 11:59:24;;;;;;;3.08;1.08;;;;;;;;;;5007776;28;20181;-51
2023/06/03 12:01:54;;;;;;;2.08;1.08;;;;;;;;;;5009816;28;20197;-51
2023/06/03 12:04:20;;;;;;;2.97;1.13;;;;;;;;;;5004891;28;20203;-51
2023/06/03 12:06:46;;;;;;;2.03;0.95;;;;;;;;;;5005465;28;20192;-50
2023/06/03 12:09:22;;;;;;;2.10;1.20;;;;;;;;;;5010678;28;20189;-51
2023/06/03 12:11:48;;;;;;;1.92;1.00;;;;;;;;;;5015521;28;20187;-50
2023/06/03 12:14:24;;;;;;;1.90;1.08;;;;;;;;;;5010462;28;20255;-51
2023/06/03 12:16:51;;;;;;;2.65;1.10;;;;;;;;;;5007279;28;20220;-50
2023/06/03 12:19:17;;;;;;;2.67;1.20;;;;;;;;;;5006533;28;20204;-51
2023/06/03 12:21:43;;;;;;;0.88;0.88;;;;;;;;;;5010987;28;20267;-50
2023/06/03 12:24:09;;;;;;;1.65;1.13;;;;;;;;;;5016064;28;20187;-52
2023/06/03 12:26:37;;;;;;;1.75;1.02;;;;;;;;;;5014435;28;20181;-50
2023/06/03 12:29:06;;;;;;;3.08;1.02;;;;;;;;;;5016758;28;20516;-51
2023/06/03 12:31:32;;;;;;;1.25;0.80;;;;;;;;;;5016141;28;20188;-50
2023/06/03 12:34:00;;;;;;;2.75;1.50;;;;;;;;;;5016287;28;20480;-52
2023/06/03 12:36:44;;;;;;;1.58;1.17;;;;;;;;;;5016407;28;20265;-51
2023/06/03 12:39:10;;;;;;;1.88;1.10;;;;;;;;;;5016205;28;20483;-51
2023/06/03 12:41:36;;;;;;;2.08;0.93;;;;;;;;;;5009964;28;20197;-51
2023/06/03 12:44:03;;;;;;;1.17;0.95;;;;;;;;;;5019751;28;20181;-50
2023/06/03 12:46:30;;;;;;;1.95;1.20;;;;;;;;;;5015953;28;20188;-50
2023/06/03 12:48:58;;;;;;;0.90;0.70;;;;;;;;;;5014310;28;20188;-52
2023/06/03 12:51:31;;;;;;;0.82;0.73;;;;;;;;;;5005223;28;20271;-51
2023/06/03 12:53:57;;;;;;;3.95;0.90;;;;;;;;;;5015827;28;20235;-50
2023/06/03 12:56:26;;;;;;;2.33;0.98;;;;;;;;;;5016145;28;20212;-51
2023/06/03 12:58:53;;;;;;;1.63;0.70;;;;;;;;;;5010964;28;20186;-51
2023/06/03 13:01:19;;;;;;;1.48;0.80;;;;;;;;;;5020308;28;20187;-51
2023/06/03 13:03:45;;;;;;;4.20;1.30;;;;;;;;;;5014831;28;20188;-50
2023/06/03 13:06:11;;;;;;;2.17;1.00;;;;;;;;;;5011673;28;20189;-51
2023/06/03 13:08:37;;;;;;;1.42;1.02;;;;;;;;;;5005384;28;20260;-50
2023/06/03 13:11:03;;;;;;;0.98;0.68;;;;;;;;;;5017161;28;20477;-51
2023/06/03 13:13:33;;;;;;;1.92;0.90;;;;;;;;;;5010587;28;20177;-51
2023/06/03 13:15:59;;;;;;;1.48;0.68;;;;;;;;;;5014156;28;20177;-51
2023/06/03 13:18:25;;;;;;;1.60;0.80;;;;;;;;;;5008720;28;20510;-51
2023/06/03 13:20:51;;;;;;;1.63;0.93;;;;;;;;;;5014820;28;20551;-50
2023/06/03 13:23:17;;;;;;;1.73;0.98;;;;;;;;;;5009674;28;20221;-49
2023/06/03 13:25:43;;;;;;;5.85;0.90;;;;;;;;;;5015324;28;20204;-49
2023/06/03 13:28:09;;;;;;;4.88;1.17;;;;;;;;;;5010756;28;20184;-49
2023/06/03 13:30:35;;;;;;;2.88;1.30;;;;;;;;;;5020092;28;20185;-50
2023/06/03 13:33:02;;;;;;;3.22;1.10;;;;;;;;;;5015330;28;20180;-49
2023/06/03 13:35:28;;;;;;;1.55;0.80;;;;;;;;;;5014360;28;20211;-49
2023/06/03 13:37:54;;;;;;;1.95;0.88;;;;;;;;;;5011631;28;20204;-50
2023/06/03 13:40:19;;;;;;;1.77;0.95;;;;;;;;;;5014973;28;20231;-50
2023/06/03 13:42:45;;;;;;;2.47;1.10;;;;;;;;;;5015050;28;20271;-49
2023/06/03 13:45:11;;;;;;;1.48;0.95;;;;;;;;;;5015349;28;20200;-52
2023/06/03 13:47:38;;;;;;;6.72;1.10;;;;;;;;;;5015268;28;20192;-50
2023/06/03 13:50:04;;;;;;;0.68;0.68;;;;;;;;;;5015379;28;20188;-50
2023/06/03 13:52:30;;;;;;;2.15;0.88;;;;;;;;;;5014567;28;20194;-50
2023/06/03 13:54:56;;;;;;;3.92;0.85;;;;;;;;;;5015244;28;20200;-50
2023/06/03 13:57:22;;;;;;;1.30;0.90;;;;;;;;;;5014428;28;20271;-50
2023/06/03 13:59:48;;;;;;;3.67;0.90;;;;;;;;;;5015091;28;20187;-50
2023/06/03 14:02:14;;;;;;;1.50;0.93;;;;;;;;;;5014992;28;20184;-51
2023/06/03 14:04:41;;;;;;;3.33;1.20;;;;;;;;;;5013120;28;20485;-50
2023/06/03 14:07:07;;;;;;;1.65;0.98;;;;;;;;;;5013630;28;20647;-50
2023/06/03 14:09:33;;;;;;;6.28;1.15;;;;;;;;;;5006631;28;20288;-50
2023/06/03 14:12:02;;;;;;;1.80;1.00;;;;;;;;;;5011497;28;20208;-50
2023/06/03 14:14:28;;;;;;;1.83;1.00;;;;;;;;;;5014828;28;20196;-50
2023/06/03 14:16:54;;;;;;;6.68;0.90;;;;;;;;;;5014263;28;20251;-50
2023/06/03 14:19:20;;;;;;;2.92;0.95;;;;;;;;;;5014503;28;20203;-50
2023/06/03 14:21:46;;;;;;;3.42;0.70;;;;;;;;;;5013797;28;20188;-50
2023/06/03 14:24:12;;;;;;;2.15;0.90;;;;;;;;;;5009890;28;20173;-49
2023/06/03 14:26:38;;;;;;;1.67;1.17;;;;;;;;;;5014326;28;20346;-50
2023/06/03 14:29:09;;;;;;;2.63;1.00;;;;;;;;;;5011480;28;20173;-51
2023/06/03 14:31:35;;;;;;;2.65;1.20;;;;;;;;;;5012804;28;20525;-51
2023/06/03 14:34:01;;;;;;;2.00;0.80;;;;;;;;;;5007041;28;20180;-50
2023/06/03 14:36:27;;;;;;;2.58;0.80;;;;;;;;;;5008075;28;20204;-50
2023/06/03 14:38:53;;;;;;;1.25;1.00;;;;;;;;;;5013276;28;20184;-51
2023/06/03 14:41:19;;;;;;;2.15;1.17;;;;;;;;;;5013903;28;20176;-52
2023/06/03 14:43:45;;;;;;;1.58;0.90;;;;;;;;;;5008643;28;20259;-51
2023/06/03 14:46:11;;;;;;;1.67;1.17;;;;;;;;;;5004664;28;20514;-51